createdAt,value
2024-02-19T00:00:00.877Z,0.0
2024-02-19T00:15:00.921Z,0.0
2024-02-19T00:30:00.944Z,0.0
2024-02-19T00:45:00.903Z,0.0
2024-02-19T01:00:01.023Z,0.0
2024-02-19T01:15:00.953Z,0.4
2024-02-19T01:30:00.870Z,0.0
2024-02-19T01:45:01.097Z,0.0
2024-02-19T02:00:00.889Z,0.0
2024-02-19T02:15:00.934Z,0.0
2024-02-19T02:30:00.941Z,0.0
2024-02-19T02:45:00.892Z,0.0
2024-02-19T03:00:00.919Z,0.0
2024-02-19T03:15:00.963Z,0.0
2024-02-19T03:30:00.885Z,0.0
2024-02-19T03:45:00.935Z,0.0
2024-02-19T04:00:01.097Z,0.0
2024-02-19T04:15:00.966Z,0.0
2024-02-19T04:30:01.060Z,0.4
2024-02-19T04:45:00.873Z,0.0
2024-02-19T05:00:00.890Z,0.0
2024-02-19T05:15:00.916Z,0.0
2024-02-19T05:30:00.987Z,0.7
2024-02-19T05:45:00.882Z,0.0
2024-02-19T06:00:01.445Z,0.0
2024-02-19T06:15:01.168Z,0.0
2024-02-19T06:30:00.885Z,0.7
2024-02-19T06:45:00.957Z,1.8
2024-02-19T07:00:00.973Z,0.7
2024-02-19T07:15:00.876Z,0.0
2024-02-19T07:30:00.924Z,0.0
2024-02-19T07:45:01.072Z,0.0
2024-02-19T08:00:00.976Z,0.0
2024-02-19T08:15:00.923Z,0.0
2024-02-19T08:30:00.963Z,0.0
2024-02-19T08:45:00.876Z,0.0
2024-02-19T09:00:00.880Z,0.0
2024-02-19T09:15:00.913Z,0.0
2024-02-19T09:30:00.888Z,0.0
2024-02-19T09:45:00.949Z,0.0
2024-02-19T10:00:01.013Z,1.8
2024-02-19T10:15:00.953Z,1.1
2024-02-19T10:30:00.915Z,2.5
2024-02-19T10:45:00.901Z,6.1
2024-02-19T11:00:00.944Z,2.2
2024-02-19T11:15:00.866Z,3.6
2024-02-19T11:30:00.876Z,1.1
2024-02-19T11:45:00.986Z,0.7
2024-02-19T12:00:00.902Z,4.0
2024-02-19T12:15:01.516Z,3.6
2024-02-19T12:30:00.920Z,2.2
2024-02-19T12:45:00.937Z,4.7
2024-02-19T13:00:00.985Z,9.7
2024-02-19T13:15:00.978Z,5.4
2024-02-19T13:30:00.939Z,2.5
2024-02-19T13:45:00.982Z,3.2
2024-02-19T14:00:01.060Z,2.9
2024-02-19T14:15:07.624Z,0.4
2024-02-19T14:30:01.073Z,1.8
2024-02-19T14:45:00.922Z,4.0
2024-02-19T15:00:00.909Z,3.6
2024-02-19T15:15:00.926Z,3.2
2024-02-19T15:30:01.230Z,0.0
2024-02-19T15:45:00.898Z,1.4
2024-02-19T16:00:01.099Z,0.0
2024-02-19T16:15:00.948Z,1.1
2024-02-19T16:30:00.888Z,4.0
2024-02-19T16:45:01.026Z,4.0
2024-02-19T17:00:01.089Z,0.0
2024-02-19T17:15:00.882Z,0.4
2024-02-19T17:30:00.929Z,1.1
2024-02-19T17:45:01.393Z,0.0
2024-02-19T18:00:00.889Z,1.4
2024-02-19T18:15:00.939Z,0.0
2024-02-19T18:30:00.908Z,0.0
2024-02-19T18:45:00.891Z,0.4
2024-02-19T19:00:00.969Z,3.6
2024-02-19T19:15:00.939Z,0.4
2024-02-19T19:30:01.177Z,1.4
2024-02-19T19:45:00.923Z,0.4
2024-02-19T20:00:01.428Z,0.0
2024-02-19T20:15:01.112Z,0.4
2024-02-19T20:30:00.930Z,0.4
2024-02-19T20:45:00.990Z,0.0
2024-02-19T21:00:00.994Z,1.1
2024-02-19T21:15:01.460Z,0.0
2024-02-19T21:30:00.956Z,2.2
2024-02-19T21:45:00.926Z,2.5
2024-02-19T22:00:01.129Z,1.1
2024-02-19T22:15:01.318Z,1.1
2024-02-19T22:30:00.956Z,1.4
2024-02-19T22:45:01.000Z,1.4
2024-02-19T23:00:00.938Z,1.8
2024-02-19T23:15:01.001Z,1.4
2024-02-19T23:30:00.950Z,2.9
2024-02-19T23:45:00.910Z,1.4
